Tiptree, United Kingdom
Current Conditions -  °F | °C
As of 11:20 AM on Monday 20 Oct 2014 (Local Time) from EGMC Reporting Station
Few Clouds Few Clouds  
Wind Chill: 16°   Ceiling: Unl
Heat Index: 16°   Visibility: 6mi
Dew Point: 11°   Wind: 13mph
Humidity: 72%   Direction: 240°WSW
Pressure: 30.03"   Gusts: NA
Location:  51.81°N, 0.75°E
Report Text: EGMC 201020Z 24011KT 9999 FEW022 16/11 Q1017
Loading
Personal Weather Stations






























Interactive Weather Map
Tropical Storm Tracking
New forecast layout! Learn more

10-Day Weather Forecast

Advertisements
Track Severe Weather on mobile